Time;durP1;ratioP1;P1;durP2;ratioP2;P2;SDS_P1;SDS_P2;PMS_P1;PMS_P2;Temp;Humidity;BMP_temperature;BMP_pressure;BME280_temperature;BME280_humidity;BME280_pressure;Samples;Min_cycle;Max_cycle;Signal;HPM_P1;HPM_P2
2023/06/05 05:28:27;;;;;;;;;;;;;;;20.43;61.14;96861.41;4238523;27;10271;-71
2023/06/05 05:30:31;;;;;;;;;;;;;;;20.80;60.57;96861.47;4236756;27;6946;-72
2023/06/05 05:32:34;;;;;;;;;;;;;;;21.12;60.47;96863.31;4242410;27;5594;-72
2023/06/05 05:34:38;;;;;;;;;;;;;;;21.37;59.78;96873.44;4240072;27;5602;-72
2023/06/05 05:36:41;;;;;;;;;;;;;;;21.56;59.72;96873.84;4239352;27;5807;-71
2023/06/05 05:38:44;;;;;;;;;;;;;;;21.72;59.35;96875.53;4246430;27;5606;-71
2023/06/05 05:40:46;;;;;;;;;;;;;;;21.88;59.18;96873.72;4248818;27;5605;-72
2023/06/05 05:42:52;;;;;;;;;;;;;;;21.98;58.86;96868.38;4247852;27;5614;-71
2023/06/05 05:44:56;;;;;;;;;;;;;;;22.08;58.50;96871.13;4243934;27;5628;-71
2023/06/05 05:46:59;;;;;;;;;;;;;;;22.20;58.32;96871.72;4231386;28;5612;-71
2023/06/05 05:49:02;;;;;;;;;;;;;;;22.25;58.12;96863.63;4231357;27;5148;-71
2023/06/05 05:51:07;;;;;;;;;;;;;;;22.31;58.19;96862.59;4238660;27;5778;-71
2023/06/05 05:53:10;;;;;;;;;;;;;;;22.39;57.83;96869.31;4235967;27;5598;-69
2023/06/05 05:55:13;;;;;;;;;;;;;;;22.52;57.96;96868.00;4247684;27;5601;-71
2023/06/05 05:57:17;;;;;;;;;;;;;;;22.54;57.24;96863.97;4219221;27;5822;-69
2023/06/05 05:59:20;;;;;;;;;;;;;;;22.56;57.63;96864.50;4231409;28;5593;-70
2023/06/05 06:01:24;;;;;;;;;;;;;;;22.53;57.44;96859.63;4244924;27;5326;-70
2023/06/05 06:03:27;;;;;;;;;;;;;;;22.49;57.01;96863.16;4242461;27;5620;-70
2023/06/05 06:05:34;;;;;;;;;;;;;;;22.48;56.88;96861.53;4243888;27;5631;-69
2023/06/05 06:07:40;;;;;;;;;;;;;;;22.54;56.96;96863.16;4233055;27;5093;-69
2023/06/05 06:09:44;;;;;;;;;;;;;;;22.65;57.12;96862.06;4231380;28;5773;-70
2023/06/05 06:11:48;;;;;;;;;;;;;;;22.77;56.89;96864.53;4239507;27;5597;-70
2023/06/05 06:13:51;;;;;;;;;;;;;;;22.83;56.75;96866.97;4240225;27;5598;-70
2023/06/05 06:15:54;;;;;;;;;;;;;;;22.88;56.53;96860.78;4238431;27;5616;-69
2023/06/05 06:17:59;;;;;;;;;;;;;;;22.93;56.23;96869.66;4230575;28;5711;-69
2023/06/05 06:20:09;;;;;;;;;;;;;;;22.96;56.16;96871.00;4233353;27;5672;-70
2023/06/05 06:22:12;;;;;;;;;;;;;;;23.00;55.61;96874.81;4239532;27;5598;-70
2023/06/05 06:24:15;;;;;;;;;;;;;;;23.02;55.95;96872.66;4235322;27;5646;-70
2023/06/05 06:26:18;;;;;;;;;;;;;;;23.04;55.89;96869.66;4239525;27;5930;-70
2023/06/05 06:28:21;;;;;;;;;;;;;;;23.05;55.39;96873.97;4233680;27;5715;-70
2023/06/05 06:30:24;;;;;;;;;;;;;;;23.06;55.51;96868.31;4228070;28;5609;-70
2023/06/05 06:32:27;;;;;;;;;;;;;;;23.06;55.34;96875.59;4227953;28;5632;-70
2023/06/05 06:34:33;;;;;;;;;;;;;;;23.08;55.48;96870.75;4227677;28;5636;-70
2023/06/05 06:36:40;;;;;;;;;;;;;;;23.12;55.24;96867.25;4227186;28;5716;-71
2023/06/05 06:38:43;;;;;;;;;;;;;;;23.15;54.75;96872.09;4227927;27;8372;-70
2023/06/05 06:40:46;;;;;;;;;;;;;;;23.18;54.73;96871.53;4227915;28;5115;-70
2023/06/05 06:42:50;;;;;;;;;;;;;;;23.21;54.56;96876.38;4228389;28;5638;-70
2023/06/05 06:44:55;;;;;;;;;;;;;;;23.22;54.51;96872.63;4227925;28;5597;-70
2023/06/05 06:46:59;;;;;;;;;;;;;;;23.26;54.64;96874.78;4227524;28;5618;-70
2023/06/05 06:49:02;;;;;;;;;;;;;;;23.29;54.07;96877.72;4227401;28;5849;-70
2023/06/05 06:51:06;;;;;;;;;;;;;;;23.37;54.22;96873.69;4235766;28;5693;-71
2023/06/05 06:53:10;;;;;;;;;;;;;;;23.42;54.18;96879.06;4227579;28;5660;-70
2023/06/05 06:55:13;;;;;;;;;;;;;;;23.44;53.58;96879.59;4223995;28;5613;-70
2023/06/05 06:57:16;;;;;;;;;;;;;;;23.39;53.93;96882.31;4223372;28;5824;-70
2023/06/05 06:59:20;;;;;;;;;;;;;;;23.37;53.53;96879.06;4231626;28;5084;-70
2023/06/05 07:01:24;;;;;;;;;;;;;;;23.36;53.85;96877.47;4227307;28;5608;-71
2023/06/05 07:03:28;;;;;;;;;;;;;;;23.30;53.60;96879.34;4227274;28;5684;-71
2023/06/05 07:05:32;;;;;;;;;;;;;;;23.27;53.47;96882.59;4234080;28;5654;-70
2023/06/05 07:07:36;;;;;;;;;;;;;;;23.20;53.64;96880.16;4235922;28;5704;-70
2023/06/05 07:09:42;;;;;;;;;;;;;;;23.14;53.53;96878.56;4227486;28;5602;-70
2023/06/05 07:11:45;;;;;;;;;;;;;;;23.09;53.53;96875.84;4218895;28;7321;-71
2023/06/05 07:13:48;;;;;;;;;;;;;;;23.04;53.38;96881.25;4227103;28;7728;-70
2023/06/05 07:15:52;;;;;;;;;;;;;;;23.01;53.83;96881.81;4227487;28;5598;-71
2023/06/05 07:17:55;;;;;;;;;;;;;;;23.01;53.31;96875.63;4226850;28;5606;-72
2023/06/05 07:19:58;;;;;;;;;;;;;;;23.01;53.17;96870.22;4227220;28;5610;-70
2023/06/05 07:22:04;;;;;;;;;;;;;;;23.00;53.70;96869.41;4227236;28;6426;-70
2023/06/05 07:24:08;;;;;;;;;;;;;;;22.99;53.31;96867.81;4221734;28;5645;-70
2023/06/05 07:26:12;;;;;;;;;;;;;;;22.99;53.12;96869.66;4223625;28;5817;-70
2023/06/05 07:28:18;;;;;;;;;;;;;;;22.97;53.46;96867.25;4222919;28;5681;-70
2023/06/05 07:30:21;;;;;;;;;;;;;;;22.95;53.20;96869.41;4235891;28;5595;-70
2023/06/05 07:32:23;;;;;;;;;;;;;;;22.93;53.09;96871.56;4221787;28;5692;-70
2023/06/05 07:34:27;;;;;;;;;;;;;;;22.91;53.23;96868.34;4246729;27;5591;-69
2023/06/05 07:36:31;;;;;;;;;;;;;;;22.89;53.22;96865.09;4235524;27;5599;-70
2023/06/05 07:38:33;;;;;;;;;;;;;;;22.86;53.09;96861.03;4239244;27;5661;-70
2023/06/05 07:40:38;;;;;;;;;;;;;;;22.84;52.78;96859.69;4234114;27;5673;-70
2023/06/05 07:42:41;;;;;;;;;;;;;;;22.82;52.99;96867.22;4235213;27;5089;-71
2023/06/05 07:44:44;;;;;;;;;;;;;;;22.82;52.96;96861.81;4234730;27;5724;-71
2023/06/05 07:46:49;;;;;;;;;;;;;;;22.79;52.61;96856.97;4226621;28;5598;-71
2023/06/05 07:48:52;;;;;;;;;;;;;;;22.72;52.90;96864.50;4226320;28;5609;-71
2023/06/05 07:50:55;;;;;;;;;;;;;;;22.66;52.60;96855.63;4226425;28;5591;-71
2023/06/05 07:52:58;;;;;;;;;;;;;;;22.69;52.68;96851.59;4226556;28;5598;-71
2023/06/05 07:55:01;;;;;;;;;;;;;;;22.65;52.88;96859.38;4216984;28;5625;-71
2023/06/05 07:57:08;;;;;;;;;;;;;;;22.60;52.82;96849.41;4234952;27;5580;-71
2023/06/05 07:59:14;;;;;;;;;;;;;;;22.56;52.99;96853.72;4235096;27;5688;-71
2023/06/05 08:01:17;;;;;;;;;;;;;;;22.52;52.97;96844.56;4243817;27;5696;-70
2023/06/05 08:03:20;;;;;;;;;;;;;;;22.49;53.10;96845.09;4242222;27;5673;-71
2023/06/05 08:05:24;;;;;;;;;;;;;;;22.51;53.20;96837.56;4228989;27;5578;-69
2023/06/05 08:07:27;;;;;;;;;;;;;;;22.54;52.83;96842.41;4223484;27;5661;-70
2023/06/05 08:09:30;;;;;;;;;;;;;;;22.55;52.82;96844.03;4234712;27;6480;-70
2023/06/05 08:11:33;;;;;;;;;;;;;;;22.54;53.04;96845.13;4231328;27;5709;-69
2023/06/05 08:13:39;;;;;;;;;;;;;;;22.53;53.21;96843.47;4234695;27;5702;-70
2023/06/05 08:15:42;;;;;;;;;;;;;;;22.56;52.66;96840.25;4234618;27;5627;-70
2023/06/05 08:17:45;;;;;;;;;;;;;;;22.57;52.72;96839.19;4234504;27;6404;-72
2023/06/05 08:19:48;;;;;;;;;;;;;;;22.60;52.89;96835.94;4234769;27;6790;-71
2023/06/05 08:21:53;;;;;;;;;;;;;;;22.58;52.90;96840.81;4218067;28;5680;-71
2023/06/05 08:23:56;;;;;;;;;;;;;;;22.59;52.96;96837.03;4234663;27;5595;-70
2023/06/05 08:25:59;;;;;;;;;;;;;;;22.62;52.65;96831.09;4238689;27;5586;-71
2023/06/05 08:28:03;;;;;;;;;;;;;;;22.60;52.47;96827.88;4229789;27;5755;-71
2023/06/05 08:30:09;;;;;;;;;;;;;;;22.57;52.94;96833.78;4240260;27;5674;-71
2023/06/05 08:32:12;;;;;;;;;;;;;;;22.59;52.75;96831.63;4234696;27;5078;-73
2023/06/05 08:34:16;;;;;;;;;;;;;;;22.59;52.70;96831.63;4251544;27;5615;-71
2023/06/05 08:36:19;;;;;;;;;;;;;;;22.60;52.95;96827.06;4242303;27;5672;-71
2023/06/05 08:38:22;;;;;;;;;;;;;;;22.60;52.41;96833.25;4234423;27;6233;-71
2023/06/05 08:40:29;;;;;;;;;;;;;;;22.60;52.41;96825.16;4233922;27;5689;-70
2023/06/05 08:42:32;;;;;;;;;;;;;;;22.61;52.28;96828.66;4233542;27;5765;-71
2023/06/05 08:44:35;;;;;;;;;;;;;;;22.63;52.38;96832.72;4231295;27;5591;-69
2023/06/05 08:46:44;;;;;;;;;;;;;;;22.64;52.82;96828.94;4217448;28;6409;-70
2023/06/05 08:48:50;;;;;;;;;;;;;;;22.67;52.86;96827.59;4225600;28;5677;-70
2023/06/05 08:50:54;;;;;;;;;;;;;;;22.69;52.71;96830.03;4218284;27;5613;-70
2023/06/05 08:52:59;;;;;;;;;;;;;;;22.69;52.41;96828.16;4234441;27;5819;-71
2023/06/05 08:55:04;;;;;;;;;;;;;;;22.72;52.39;96834.88;4234539;27;5685;-71
2023/06/05 08:57:08;;;;;;;;;;;;;;;22.72;52.24;96824.09;4251566;27;5575;-71
2023/06/05 08:59:14;;;;;;;;;;;;;;;22.76;52.29;96830.56;4208871;28;6420;-70
2023/06/05 09:01:18;;;;;;;;;;;;;;;22.76;52.43;96820.56;4234422;27;5669;-71
2023/06/05 09:03:22;;;;;;;;;;;;;;;22.78;52.70;96828.41;4244889;27;5586;-71
2023/06/05 09:05:25;;;;;;;;;;;;;;;22.79;52.16;96830.03;4240674;27;5763;-71
2023/06/05 09:07:31;;;;;;;;;;;;;;;22.80;52.61;96826.25;4246811;27;5611;-71
2023/06/05 09:09:34;;;;;;;;;;;;;;;22.83;52.14;96825.72;4239051;27;5850;-71
2023/06/05 09:11:39;;;;;;;;;;;;;;;22.79;52.11;96821.94;4218025;28;5686;-71
2023/06/05 09:13:46;;;;;;;;;;;;;;;22.74;52.38;96821.94;4217800;28;5665;-71
2023/06/05 09:15:51;;;;;;;;;;;;;;;22.74;52.79;96819.25;4218489;28;5822;-70
2023/06/05 09:18:07;;;;;;;;;;;;;;;22.75;52.57;96812.75;4219817;27;5685;-70
2023/06/05 09:20:24;;;;;;;;;;;;;;;22.76;52.31;96809.81;4251836;27;5610;-70
2023/06/05 09:22:36;;;;;;;;;;;;;;;22.80;52.60;96804.69;4251781;27;5596;-70
2023/06/05 09:24:42;;;;;;;;;;;;;;;22.84;52.20;96809.28;4252161;27;5693;-70
2023/06/05 09:26:49;;;;;;;;;;;;;;;22.85;52.52;96802.81;4251693;27;5574;-70
2023/06/05 09:28:57;;;;;;;;;;;;;;;22.85;51.96;96807.41;4251756;27;5703;-71
2023/06/05 09:31:04;;;;;;;;;;;;;;;22.83;52.07;96798.75;4228741;28;5605;-70
2023/06/05 09:33:10;;;;;;;;;;;;;;;22.83;52.27;96798.75;4217723;28;5791;-70
2023/06/05 09:35:18;;;;;;;;;;;;;;;22.82;52.26;96789.06;4217212;28;5605;-70
2023/06/05 09:37:33;;;;;;;;;;;;;;;22.85;52.06;96793.94;4217163;28;5605;-70
2023/06/05 09:39:37;;;;;;;;;;;;;;;22.87;52.21;96795.25;4217334;28;5711;-70
2023/06/05 09:41:44;;;;;;;;;;;;;;;22.86;52.28;96790.97;4217333;28;5100;-69
2023/06/05 09:43:50;;;;;;;;;;;;;;;22.87;52.09;96787.19;4217278;28;5627;-69
2023/06/05 09:45:54;;;;;;;;;;;;;;;22.89;52.37;96793.13;4217237;28;5624;-70
2023/06/05 09:48:14;;;;;;;;;;;;;;;22.89;52.01;96786.94;4236524;27;5591;-70
2023/06/05 09:50:29;;;;;;;;;;;;;;;22.93;52.26;96778.03;4251127;27;5564;-70
2023/06/05 09:52:37;;;;;;;;;;;;;;;22.95;51.98;96777.75;4221212;27;5803;-70
2023/06/05 09:54:44;;;;;;;;;;;;;;;22.95;52.25;96783.13;4217110;28;5661;-70
2023/06/05 09:56:51;;;;;;;;;;;;;;;22.95;52.33;96780.44;4216969;28;5665;-70
2023/06/05 09:58:55;;;;;;;;;;;;;;;22.93;51.87;96777.22;4217043;28;5724;-70
2023/06/05 10:01:03;;;;;;;;;;;;;;;22.93;52.41;96771.81;4217013;28;5764;-70
2023/06/05 10:03:10;;;;;;;;;;;;;;;22.93;52.11;96779.91;4217061;28;5752;-70
2023/06/05 10:05:14;;;;;;;;;;;;;;;22.93;52.22;96771.81;4244589;27;5590;-70
2023/06/05 10:07:19;;;;;;;;;;;;;;;22.92;51.99;96776.41;4227798;27;6346;-70
2023/06/05 10:09:25;;;;;;;;;;;;;;;22.95;51.80;96780.44;4230307;27;5575;-70
2023/06/05 10:11:28;;;;;;;;;;;;;;;22.96;52.31;96768.56;4254061;27;5587;-70
2023/06/05 10:13:32;;;;;;;;;;;;;;;22.97;52.19;96769.38;4236913;27;5614;-68
2023/06/05 10:15:38;;;;;;;;;;;;;;;22.99;52.08;96769.91;4254013;27;5583;-69
2023/06/05 10:17:42;;;;;;;;;;;;;;;23.02;52.21;96767.50;4221147;27;5665;-70
2023/06/05 10:19:45;;;;;;;;;;;;;;;23.07;51.86;96770.16;4236423;27;5708;-70
2023/06/05 10:21:49;;;;;;;;;;;;;;;23.10;51.79;96775.00;4219974;28;5838;-70
2023/06/05 10:23:58;;;;;;;;;;;;;;;23.09;51.84;96767.19;4219749;28;5703;-70
2023/06/05 10:26:12;;;;;;;;;;;;;;;23.06;52.11;96771.25;4219675;28;8397;-70
2023/06/05 10:28:37;;;;;;;;;;;;;;;23.09;52.17;96759.91;4219643;28;5744;-69
2023/06/05 10:31:22;;;;;;;;;;;;;;;23.10;51.87;96772.31;4219905;28;5672;-69
2023/06/05 10:33:37;;;;;;;;;;;;;;;23.15;52.10;96763.41;4240091;27;5586;-70
2023/06/05 10:35:46;;;;;;;;;;;;;;;23.16;51.89;96748.84;4238165;27;6051;-70
2023/06/05 10:38:03;;;;;;;;;;;;;;;23.16;51.99;96760.44;4236588;27;5603;-69
2023/06/05 10:40:10;;;;;;;;;;;;;;;23.21;52.04;96763.13;4219884;28;6366;-69
2023/06/05 10:42:22;;;;;;;;;;;;;;;23.21;51.55;96762.31;4244132;27;6393;-71
2023/06/05 10:44:42;;;;;;;;;;;;;;;23.25;51.91;96760.69;4253542;27;5607;-70
2023/06/05 10:46:48;;;;;;;;;;;;;;;23.29;51.52;96767.16;4253406;27;5570;-70
2023/06/05 10:49:12;;;;;;;;;;;;;;;23.33;51.50;96762.00;4251578;27;5579;-70
2023/06/05 10:51:33;;;;;;;;;;;;;;;23.35;51.56;96763.38;4219479;28;5680;-70
2023/06/05 10:53:43;;;;;;;;;;;;;;;23.35;51.56;96757.97;4219486;28;6495;-70
2023/06/05 10:55:48;;;;;;;;;;;;;;;23.35;51.46;96757.16;4219281;28;5677;-70
2023/06/05 10:58:08;;;;;;;;;;;;;;;23.35;51.48;96740.97;4219323;28;5680;-70
2023/06/05 11:00:12;;;;;;;;;;;;;;;23.37;51.35;96739.63;4219442;28;5778;-70
2023/06/05 11:02:27;;;;;;;;;;;;;;;23.39;51.48;96755.50;4219243;28;5752;-70
2023/06/05 11:05:10;;;;;;;;;;;;;;;23.37;51.39;96745.00;4219291;28;5676;-70
2023/06/05 11:07:17;;;;;;;;;;;;;;;23.40;51.24;96740.94;4219135;28;5089;-70
2023/06/05 11:09:22;;;;;;;;;;;;;;;23.43;51.17;96740.38;4219280;28;5669;-70
2023/06/05 11:11:27;;;;;;;;;;;;;;;23.43;51.19;96735.00;4219010;28;5694;-70
2023/06/05 11:13:55;;;;;;;;;;;;;;;23.47;51.49;96738.78;4218923;28;5680;-71
2023/06/05 11:15:58;;;;;;;;;;;;;;;23.51;51.25;96731.72;4218818;28;5621;-71
2023/06/05 11:18:33;;;;;;;;;;;;;;;23.53;51.09;96726.84;4218606;28;5612;-70
2023/06/05 11:20:54;;;;;;;;;;;;;;;23.54;51.00;96717.66;4225733;28;5701;-71
2023/06/05 11:23:10;;;;;;;;;;;;;;;23.57;51.11;96722.53;4225831;28;5739;-71
2023/06/05 11:25:27;;;;;;;;;;;;;;;23.64;50.84;96724.94;4218804;28;5624;-71
2023/06/05 11:27:45;;;;;;;;;;;;;;;23.64;50.84;96727.63;4224900;28;5812;-71
2023/06/05 11:29:48;;;;;;;;;;;;;;;23.68;50.64;96717.91;4235739;28;5796;-71
2023/06/05 11:31:51;;;;;;;;;;;;;;;23.70;50.88;96721.16;4234929;28;5601;-71
2023/06/05 11:33:54;;;;;;;;;;;;;;;23.66;50.58;96718.19;4227792;28;5598;-70
2023/06/05 11:36:02;;;;;;;;;;;;;;;23.72;49.88;96708.16;4235732;28;5590;-70
2023/06/05 11:38:09;;;;;;;;;;;;;;;23.82;49.63;96716.22;4235808;28;5598;-70
2023/06/05 11:40:24;;;;;;;;;;;;;;;23.89;48.88;96707.78;4235498;28;5772;-70
2023/06/05 11:42:27;;;;;;;;;;;;;;;23.98;48.19;96709.63;4235540;28;5870;-70
2023/06/05 11:44:35;;;;;;;;;;;;;;;24.07;47.52;96699.03;4235460;28;5605;-70
2023/06/05 11:46:38;;;;;;;;;;;;;;;24.15;46.95;96694.94;4232486;28;5594;-70
2023/06/05 11:48:46;;;;;;;;;;;;;;;24.26;46.27;96688.34;4228208;28;5601;-70
2023/06/05 11:50:54;;;;;;;;;;;;;;;24.40;45.60;96692.03;4233453;28;5610;-70
2023/06/05 11:53:05;;;;;;;;;;;;;;;24.50;45.35;96701.97;4218267;28;5761;-70
2023/06/05 11:55:15;;;;;;;;;;;;;;;24.52;45.00;96699.78;4223865;28;5610;-71
2023/06/05 11:57:18;;;;;;;;;;;;;;;24.52;44.70;96686.25;4225592;28;5598;-70
2023/06/05 11:59:23;;;;;;;;;;;;;;;24.54;44.21;96689.47;4231325;28;5617;-70
2023/06/05 12:01:31;;;;;;;;;;;;;;;24.61;43.63;96685.38;4225214;28;6382;-70
2023/06/05 12:03:35;;;;;;;;;;;;;;;24.71;43.00;96692.56;4228390;28;5594;-71
2023/06/05 12:05:39;;;;;;;;;;;;;;;24.77;42.66;96691.41;4227717;28;5612;-71
2023/06/05 12:07:43;;;;;;;;;;;;;;;24.82;42.34;96690.56;4223381;28;5607;-70
2023/06/05 12:09:52;;;;;;;;;;;;;;;24.81;42.17;96676.25;4224629;28;5970;-71
2023/06/05 12:12:06;;;;;;;;;;;;;;;24.83;42.26;96676.75;4228961;28;5598;-71
2023/06/05 12:14:11;;;;;;;;;;;;;;;24.87;41.71;96675.09;4220209;27;5709;-71
2023/06/05 12:16:15;;;;;;;;;;;;;;;24.92;41.34;96666.94;4226730;27;5598;-71
2023/06/05 12:18:19;;;;;;;;;;;;;;;24.95;40.82;96671.75;4223405;27;5912;-71
2023/06/05 12:20:22;;;;;;;;;;;;;;;25.02;40.86;96671.41;4227330;28;5793;-71
2023/06/05 12:22:25;;;;;;;;;;;;;;;25.09;40.24;96671.09;4230711;28;5834;-71
2023/06/05 12:24:32;;;;;;;;;;;;;;;25.09;40.56;96668.38;4233817;27;5702;-71
2023/06/05 12:26:53;;;;;;;;;;;;;;;25.07;39.89;96665.16;4231206;28;5817;-71
2023/06/05 12:29:05;;;;;;;;;;;;;;;25.09;39.66;96668.38;4223650;28;5602;-70
2023/06/05 12:31:08;;;;;;;;;;;;;;;25.12;39.20;96668.59;4222376;28;5791;-71
2023/06/05 12:33:11;;;;;;;;;;;;;;;25.15;38.73;96651.81;4222008;27;5669;-70
2023/06/05 12:35:23;;;;;;;;;;;;;;;25.17;38.68;96641.50;4226977;27;5602;-71
2023/06/05 12:37:29;;;;;;;;;;;;;;;25.24;38.42;96643.84;4229752;28;5699;-71
2023/06/05 12:39:34;;;;;;;;;;;;;;;25.29;38.22;96642.97;4228764;28;5703;-71
2023/06/05 12:41:37;;;;;;;;;;;;;;;25.34;37.63;96646.41;4231580;28;5881;-71
2023/06/05 12:43:42;;;;;;;;;;;;;;;25.34;37.54;96635.59;4229796;28;5729;-71
2023/06/05 12:45:45;;;;;;;;;;;;;;;25.36;37.29;96644.22;4226363;28;5620;-70
2023/06/05 12:47:48;;;;;;;;;;;;;;;25.38;37.20;96636.63;4223048;27;5655;-70
2023/06/05 12:49:51;;;;;;;;;;;;;;;25.39;36.98;96632.81;4230071;27;5627;-70
2023/06/05 12:51:56;;;;;;;;;;;;;;;25.42;36.53;96642.25;4230962;28;5605;-70
2023/06/05 12:54:00;;;;;;;;;;;;;;;25.47;36.58;96634.84;4227843;28;5104;-72
2023/06/05 12:56:02;;;;;;;;;;;;;;;25.54;36.20;96642.63;4226113;28;6271;-70
2023/06/05 12:58:05;;;;;;;;;;;;;;;25.56;35.71;96643.13;4225476;28;5798;-71
2023/06/05 13:00:13;;;;;;;;;;;;;;;25.53;35.60;96628.28;4227683;28;5736;-70
2023/06/05 13:02:16;;;;;;;;;;;;;;;25.54;35.48;96632.59;4231041;28;5717;-71
2023/06/05 13:04:19;;;;;;;;;;;;;;;25.59;34.97;96633.63;4217609;28;5609;-71
2023/06/05 13:06:22;;;;;;;;;;;;;;;25.64;34.89;96630.84;4231127;28;5788;-70
2023/06/05 13:08:27;;;;;;;;;;;;;;;25.63;35.01;96640.06;4228157;28;5799;-70
2023/06/05 13:10:30;;;;;;;;;;;;;;;25.61;34.91;96640.38;4223959;27;5776;-70
2023/06/05 13:12:33;;;;;;;;;;;;;;;25.62;34.77;96620.31;4225456;27;6318;-70
2023/06/05 13:14:36;;;;;;;;;;;;;;;25.64;34.56;96628.16;4231213;27;5767;-71
2023/06/05 13:16:39;;;;;;;;;;;;;;;25.65;34.54;96629.75;4227743;27;5784;-71
2023/06/05 13:18:42;;;;;;;;;;;;;;;25.69;34.32;96630.75;4227067;28;5625;-71
2023/06/05 13:20:45;;;;;;;;;;;;;;;25.76;33.95;96634.75;4224527;27;5729;-71
2023/06/05 13:22:48;;;;;;;;;;;;;;;25.80;33.93;96627.63;4204852;28;5699;-71
2023/06/05 13:24:52;;;;;;;;;;;;;;;25.81;33.72;96629.25;4226824;28;5797;-71
2023/06/05 13:26:55;;;;;;;;;;;;;;;25.81;33.79;96626.53;4221933;27;5664;-71
2023/06/05 13:28:58;;;;;;;;;;;;;;;25.82;33.53;96622.75;4232500;27;5733;-71
2023/06/05 13:31:04;;;;;;;;;;;;;;;25.86;33.56;96627.56;4229292;28;5602;-71
2023/06/05 13:33:07;;;;;;;;;;;;;;;25.86;33.35;96627.56;4226793;28;5643;-71
2023/06/05 13:35:10;;;;;;;;;;;;;;;25.83;33.70;96637.91;4222369;28;5691;-70
2023/06/05 13:37:13;;;;;;;;;;;;;;;25.83;33.24;96626.28;4226229;28;5753;-71
2023/06/05 13:39:17;;;;;;;;;;;;;;;25.85;33.17;96617.84;4234924;28;5721;-71
2023/06/05 13:41:22;;;;;;;;;;;;;;;25.83;33.31;96626.28;4230211;28;5139;-71
2023/06/05 13:43:25;;;;;;;;;;;;;;;25.81;33.09;96628.44;4234399;28;5768;-71
2023/06/05 13:45:29;;;;;;;;;;;;;;;25.86;32.85;96620.25;4227968;28;5633;-71
2023/06/05 13:47:32;;;;;;;;;;;;;;;25.88;32.54;96620.75;4234701;28;5625;-71
2023/06/05 13:49:37;;;;;;;;;;;;;;;25.89;32.24;96614.25;4229308;27;5712;-71
2023/06/05 13:51:40;;;;;;;;;;;;;;;25.92;32.05;96602.81;4217803;28;5613;-71
2023/06/05 13:53:43;;;;;;;;;;;;;;;25.92;31.94;96597.38;4227413;27;5826;-71
2023/06/05 13:55:46;;;;;;;;;;;;;;;25.94;31.88;96603.34;4223531;27;5665;-71
2023/06/05 13:57:50;;;;;;;;;;;;;;;25.97;31.58;96599.22;4228938;28;5613;-71
2023/06/05 13:59:55;;;;;;;;;;;;;;;26.02;31.51;96616.19;4225006;28;7533;-71
2023/06/05 14:01:58;;;;;;;;;;;;;;;26.05;31.52;96601.28;4227732;28;5693;-71
2023/06/05 14:04:01;;;;;;;;;;;;;;;26.07;31.17;96596.34;4234522;28;5591;-71
2023/06/05 14:06:06;;;;;;;;;;;;;;;26.08;31.16;96598.75;4224427;28;5698;-71
2023/06/05 14:08:09;;;;;;;;;;;;;;;26.07;31.37;96599.88;4225751;28;5664;-71
2023/06/05 14:10:12;;;;;;;;;;;;;;;26.06;31.38;96598.25;4236361;28;5590;-71
2023/06/05 14:12:16;;;;;;;;;;;;;;;26.05;31.18;96598.56;4237120;27;5730;-71
2023/06/05 14:14:20;;;;;;;;;;;;;;;26.04;30.90;96588.81;4223477;28;5601;-71
2023/06/05 14:16:23;;;;;;;;;;;;;;;26.06;30.84;96592.03;4232740;28;5605;-71
2023/06/05 14:18:26;;;;;;;;;;;;;;;26.08;30.66;96593.34;4235061;27;5781;-71
2023/06/05 14:20:30;;;;;;;;;;;;;;;26.09;30.51;96580.59;4225557;27;5621;-71
2023/06/05 14:22:33;;;;;;;;;;;;;;;26.11;30.59;96589.22;4226284;28;5832;-71
2023/06/05 14:24:36;;;;;;;;;;;;;;;26.10;30.39;96583.00;4225824;28;5700;-71
2023/06/05 14:26:39;;;;;;;;;;;;;;;26.11;30.19;96590.03;4228937;28;5709;-71
2023/06/05 14:28:42;;;;;;;;;;;;;;;26.13;29.91;96582.41;4228534;28;5665;-72
2023/06/05 14:30:46;;;;;;;;;;;;;;;26.11;30.18;96576.50;4229455;27;5776;-71
2023/06/05 14:32:49;;;;;;;;;;;;;;;26.10;29.97;96580.31;4229645;28;5888;-66
2023/06/05 14:34:52;;;;;;;;;;;;;;;26.15;29.77;96584.00;4229931;27;5730;-77
2023/06/05 14:36:55;;;;;;;;;;;;;;;26.18;29.46;96580.72;4235620;27;6390;-72
2023/06/05 14:38:58;;;;;;;;;;;;;;;26.18;29.41;96580.72;4232229;27;5662;-72
2023/06/05 14:41:01;;;;;;;;;;;;;;;26.20;29.59;96583.94;4227515;28;6431;-71
2023/06/05 14:43:05;;;;;;;;;;;;;;;26.18;29.35;96581.53;4229283;27;5776;-72
2023/06/05 14:45:10;;;;;;;;;;;;;;;26.18;29.12;96573.41;4236235;27;5670;-72
2023/06/05 14:47:14;;;;;;;;;;;;;;;26.19;29.51;96560.66;4226974;27;5779;-73
2023/06/05 14:49:18;;;;;;;;;;;;;;;26.17;29.13;96565.59;4223933;27;5798;-75
2023/06/05 14:51:21;;;;;;;;;;;;;;;26.17;29.49;96560.16;4226184;27;5767;-74
2023/06/05 14:53:25;;;;;;;;;;;;;;;26.18;29.25;96564.47;4230383;27;5837;-74
2023/06/05 14:55:27;;;;;;;;;;;;;;;26.21;29.18;96563.88;4235103;27;7719;-73
2023/06/05 14:57:30;;;;;;;;;;;;;;;26.24;29.45;96560.56;4232157;28;5825;-74
2023/06/05 14:59:33;;;;;;;;;;;;;;;26.26;29.27;96561.06;4227879;28;5751;-74
2023/06/05 15:01:36;;;;;;;;;;;;;;;26.29;29.17;96552.34;4229192;28;5767;-74
2023/06/05 15:03:41;;;;;;;;;;;;;;;26.30;28.83;96556.66;4226883;27;6639;-74
2023/06/05 15:05:45;;;;;;;;;;;;;;;26.31;28.86;96556.34;4208247;28;5804;-79
2023/06/05 15:07:49;;;;;;;;;;;;;;;26.32;28.92;96540.91;4228818;27;5730;-70
2023/06/05 15:09:52;;;;;;;;;;;;;;;26.31;28.58;96555.56;4230038;27;5111;-83
2023/06/05 15:11:55;;;;;;;;;;;;;;;26.30;28.59;96543.91;4226961;28;5618;-84
2023/06/05 15:14:00;;;;;;;;;;;;;;;26.28;28.65;96539.91;4221109;27;5747;-84
2023/06/05 15:16:03;;;;;;;;;;;;;;;26.26;28.43;96556.44;4225767;28;5661;-84
2023/06/05 15:18:07;;;;;;;;;;;;;;;26.28;28.44;96539.91;4220448;27;5784;-83
2023/06/05 15:20:12;;;;;;;;;;;;;;;26.32;28.17;96547.13;4235813;28;5602;-83
2023/06/05 15:22:15;;;;;;;;;;;;;;;26.33;28.04;96543.31;4220027;27;5701;-86
2023/06/05 15:24:18;;;;;;;;;;;;;;;26.36;28.33;96536.47;4219509;27;5673;-84
2023/06/05 15:26:21;;;;;;;;;;;;;;;26.36;28.27;96541.91;4223249;28;5676;-83
2023/06/05 15:28:24;;;;;;;;;;;;;;;26.34;27.54;96536.78;4226742;27;5815;-85
2023/06/05 15:30:27;;;;;;;;;;;;;;;26.38;27.65;96537.00;4218564;28;5884;-85
2023/06/05 15:32:30;;;;;;;;;;;;;;;26.40;27.61;96534.81;4218422;27;5673;-85
2023/06/05 15:34:33;;;;;;;;;;;;;;;26.43;27.46;96536.94;4239751;27;7660;-84
2023/06/05 15:36:37;;;;;;;;;;;;;;;26.45;27.22;96529.28;4229557;28;5113;-84
2023/06/05 15:38:40;;;;;;;;;;;;;;;26.44;27.47;96527.69;4237231;27;5774;-83
2023/06/05 15:40:44;;;;;;;;;;;;;;;26.42;27.30;96531.81;4231140;27;5585;-83
2023/06/05 15:43:04;;;;;;;;;;;;;;;26.42;27.27;96512.84;4233922;28;5697;-84
2023/06/05 15:45:08;;;;;;;;;;;;;;;26.46;27.24;96524.66;4228432;27;5780;-83
2023/06/05 15:47:11;;;;;;;;;;;;;;;26.50;27.39;96517.53;4227939;27;5093;-82
2023/06/05 15:49:14;;;;;;;;;;;;;;;26.50;27.18;96518.34;4231595;28;5581;-83
2023/06/05 15:51:17;;;;;;;;;;;;;;;26.51;27.23;96524.59;4232695;28;5748;-84
2023/06/05 15:53:21;;;;;;;;;;;;;;;26.49;27.12;96519.44;4224711;28;5832;-84
2023/06/05 15:55:24;;;;;;;;;;;;;;;26.49;26.99;96513.22;4228151;27;6823;-84
2023/06/05 15:57:27;;;;;;;;;;;;;;;26.49;27.23;96510.50;4219853;28;6473;-84
2023/06/05 15:59:30;;;;;;;;;;;;;;;26.45;27.01;96507.59;4219895;28;5774;-84
2023/06/05 16:01:35;;;;;;;;;;;;;;;26.47;26.99;96507.31;4219404;28;5641;-82
2023/06/05 16:03:38;;;;;;;;;;;;;;;26.46;26.99;96509.22;4230886;28;5594;-84
2023/06/05 16:05:42;;;;;;;;;;;;;;;26.44;27.29;96507.91;4234789;27;5843;-87
2023/06/05 16:07:44;;;;;;;;;;;;;;;26.44;27.15;96506.00;4238541;27;5693;-84
2023/06/05 16:09:50;;;;;;;;;;;;;;;26.43;27.19;96501.69;4228872;28;5661;-85
2023/06/05 16:11:53;;;;;;;;;;;;;;;26.45;27.23;96506.81;4233249;28;5639;-84
2023/06/05 16:13:56;;;;;;;;;;;;;;;26.43;26.96;96498.19;4227184;27;6199;-84
2023/06/05 16:15:59;;;;;;;;;;;;;;;26.44;26.99;96510.63;4229998;28;5598;-84
2023/06/05 16:18:01;;;;;;;;;;;;;;;26.44;27.02;96506.00;4228669;28;5783;-85
2023/06/05 16:20:06;;;;;;;;;;;;;;;26.42;26.68;96502.81;4228020;27;5755;-84
2023/06/05 16:22:08;;;;;;;;;;;;;;;26.43;26.84;96504.41;4227979;28;5673;-86
2023/06/05 16:24:11;;;;;;;;;;;;;;;26.40;26.93;96510.44;4233373;27;5928;-85
2023/06/05 16:26:15;;;;;;;;;;;;;;;26.36;26.88;96509.38;4228428;28;5674;-85
2023/06/05 16:28:18;;;;;;;;;;;;;;;26.40;26.58;96510.44;4227762;28;5773;-85
2023/06/05 16:30:21;;;;;;;;;;;;;;;26.40;26.20;96491.47;4226454;28;6292;-84